sensor_id;sensor_type;location;lat;lon;timestamp;P1;durP1;ratioP1;P2;durP2;ratioP2
2538;SDS011;1280;49.760;9.664;2022-12-05T00:02:00;29.85;;;16.33;;
2538;SDS011;1280;49.760;9.664;2022-12-05T00:04:29;26.70;;;13.90;;
2538;SDS011;1280;49.760;9.664;2022-12-05T00:06:58;28.17;;;15.15;;
2538;SDS011;1280;49.760;9.664;2022-12-05T00:09:26;25.80;;;15.90;;
2538;SDS011;1280;49.760;9.664;2022-12-05T00:11:54;30.70;;;17.63;;
2538;SDS011;1280;49.760;9.664;2022-12-05T00:14:23;31.42;;;17.50;;
2538;SDS011;1280;49.760;9.664;2022-12-05T00:16:51;25.33;;;15.63;;
2538;SDS011;1280;49.760;9.664;2022-12-05T00:19:19;29.55;;;16.75;;
2538;SDS011;1280;49.760;9.664;2022-12-05T00:21:47;31.63;;;17.25;;
2538;SDS011;1280;49.760;9.664;2022-12-05T00:24:17;29.70;;;16.17;;
2538;SDS011;1280;49.760;9.664;2022-12-05T00:26:46;31.80;;;16.45;;
2538;SDS011;1280;49.760;9.664;2022-12-05T00:29:14;31.88;;;18.10;;
2538;SDS011;1280;49.760;9.664;2022-12-05T00:31:42;28.88;;;15.63;;
2538;SDS011;1280;49.760;9.664;2022-12-05T00:34:10;29.70;;;15.65;;
2538;SDS011;1280;49.760;9.664;2022-12-05T00:36:38;29.80;;;15.43;;
2538;SDS011;1280;49.760;9.664;2022-12-05T00:39:07;25.95;;;15.07;;
2538;SDS011;1280;49.760;9.664;2022-12-05T00:41:38;26.98;;;15.95;;
2538;SDS011;1280;49.760;9.664;2022-12-05T00:44:06;27.45;;;16.17;;
2538;SDS011;1280;49.760;9.664;2022-12-05T00:46:35;32.47;;;16.50;;
2538;SDS011;1280;49.760;9.664;2022-12-05T00:49:04;28.80;;;16.10;;
2538;SDS011;1280;49.760;9.664;2022-12-05T00:51:34;28.85;;;16.10;;
2538;SDS011;1280;49.760;9.664;2022-12-05T00:54:04;28.40;;;17.00;;
2538;SDS011;1280;49.760;9.664;2022-12-05T00:56:34;31.15;;;15.85;;
2538;SDS011;1280;49.760;9.664;2022-12-05T00:59:04;29.58;;;16.00;;
2538;SDS011;1280;49.760;9.664;2022-12-05T01:01:33;29.52;;;16.27;;
2538;SDS011;1280;49.760;9.664;2022-12-05T01:04:04;27.58;;;16.02;;
2538;SDS011;1280;49.760;9.664;2022-12-05T01:06:35;29.02;;;17.15;;
2538;SDS011;1280;49.760;9.664;2022-12-05T01:09:03;30.10;;;17.10;;
2538;SDS011;1280;49.760;9.664;2022-12-05T01:11:32;27.38;;;16.30;;
2538;SDS011;1280;49.760;9.664;2022-12-05T01:14:08;33.55;;;17.30;;
2538;SDS011;1280;49.760;9.664;2022-12-05T01:16:37;30.77;;;18.08;;
2538;SDS011;1280;49.760;9.664;2022-12-05T01:19:10;29.20;;;16.95;;
2538;SDS011;1280;49.760;9.664;2022-12-05T01:21:39;29.55;;;15.73;;
2538;SDS011;1280;49.760;9.664;2022-12-05T01:24:08;26.20;;;14.95;;
2538;SDS011;1280;49.760;9.664;2022-12-05T01:26:36;30.48;;;16.73;;
2538;SDS011;1280;49.760;9.664;2022-12-05T01:29:07;30.20;;;17.10;;
2538;SDS011;1280;49.760;9.664;2022-12-05T01:31:36;28.77;;;15.07;;
2538;SDS011;1280;49.760;9.664;2022-12-05T01:34:06;32.28;;;17.35;;
2538;SDS011;1280;49.760;9.664;2022-12-05T01:36:37;29.85;;;16.30;;
2538;SDS011;1280;49.760;9.664;2022-12-05T01:39:05;33.20;;;16.60;;
2538;SDS011;1280;49.760;9.664;2022-12-05T01:41:35;29.00;;;16.63;;
2538;SDS011;1280;49.760;9.664;2022-12-05T01:44:06;28.58;;;16.35;;
2538;SDS011;1280;49.760;9.664;2022-12-05T01:46:51;32.28;;;17.65;;
2538;SDS011;1280;49.760;9.664;2022-12-05T01:49:19;28.45;;;15.57;;
2538;SDS011;1280;49.760;9.664;2022-12-05T01:51:54;33.58;;;17.17;;
2538;SDS011;1280;49.760;9.664;2022-12-05T01:54:27;33.20;;;17.92;;
2538;SDS011;1280;49.760;9.664;2022-12-05T01:56:56;29.42;;;17.23;;
2538;SDS011;1280;49.760;9.664;2022-12-05T01:59:30;30.45;;;16.02;;
2538;SDS011;1280;49.760;9.664;2022-12-05T02:02:01;31.90;;;17.60;;
2538;SDS011;1280;49.760;9.664;2022-12-05T02:04:30;30.02;;;16.23;;
2538;SDS011;1280;49.760;9.664;2022-12-05T02:07:00;31.08;;;16.63;;
2538;SDS011;1280;49.760;9.664;2022-12-05T02:09:28;30.73;;;17.33;;
2538;SDS011;1280;49.760;9.664;2022-12-05T02:11:57;31.80;;;17.27;;
2538;SDS011;1280;49.760;9.664;2022-12-05T02:14:30;35.47;;;17.88;;
2538;SDS011;1280;49.760;9.664;2022-12-05T02:17:05;35.30;;;16.50;;
2538;SDS011;1280;49.760;9.664;2022-12-05T02:19:48;31.45;;;16.83;;
2538;SDS011;1280;49.760;9.664;2022-12-05T02:22:42;32.38;;;16.58;;
2538;SDS011;1280;49.760;9.664;2022-12-05T02:25:30;39.05;;;17.38;;
2538;SDS011;1280;49.760;9.664;2022-12-05T02:28:26;35.72;;;18.38;;
2538;SDS011;1280;49.760;9.664;2022-12-05T02:31:24;35.72;;;17.77;;
2538;SDS011;1280;49.760;9.664;2022-12-05T02:34:02;37.22;;;18.55;;
2538;SDS011;1280;49.760;9.664;2022-12-05T02:36:34;32.05;;;16.17;;
2538;SDS011;1280;49.760;9.664;2022-12-05T02:39:09;32.33;;;17.00;;
2538;SDS011;1280;49.760;9.664;2022-12-05T02:41:44;33.30;;;17.33;;
2538;SDS011;1280;49.760;9.664;2022-12-05T02:44:16;28.23;;;15.82;;
2538;SDS011;1280;49.760;9.664;2022-12-05T02:46:59;34.47;;;16.70;;
2538;SDS011;1280;49.760;9.664;2022-12-05T02:49:29;38.35;;;18.65;;
2538;SDS011;1280;49.760;9.664;2022-12-05T02:52:01;31.33;;;16.95;;
2538;SDS011;1280;49.760;9.664;2022-12-05T02:54:32;35.92;;;18.25;;
2538;SDS011;1280;49.760;9.664;2022-12-05T02:57:05;36.67;;;18.25;;
2538;SDS011;1280;49.760;9.664;2022-12-05T02:59:42;38.20;;;19.45;;
2538;SDS011;1280;49.760;9.664;2022-12-05T03:02:23;39.78;;;17.40;;
2538;SDS011;1280;49.760;9.664;2022-12-05T03:05:03;42.50;;;19.10;;
2538;SDS011;1280;49.760;9.664;2022-12-05T03:07:42;38.92;;;18.35;;
2538;SDS011;1280;49.760;9.664;2022-12-05T03:10:16;39.45;;;19.77;;
2538;SDS011;1280;49.760;9.664;2022-12-05T03:12:55;33.50;;;16.63;;
2538;SDS011;1280;49.760;9.664;2022-12-05T03:15:27;42.78;;;18.45;;
2538;SDS011;1280;49.760;9.664;2022-12-05T03:18:02;40.30;;;19.40;;
2538;SDS011;1280;49.760;9.664;2022-12-05T03:20:36;40.22;;;19.75;;
2538;SDS011;1280;49.760;9.664;2022-12-05T03:23:10;44.25;;;20.92;;
2538;SDS011;1280;49.760;9.664;2022-12-05T03:25:45;42.17;;;19.23;;
2538;SDS011;1280;49.760;9.664;2022-12-05T03:28:22;39.75;;;19.33;;
2538;SDS011;1280;49.760;9.664;2022-12-05T03:30:55;44.08;;;20.42;;
2538;SDS011;1280;49.760;9.664;2022-12-05T03:33:33;42.70;;;19.25;;
2538;SDS011;1280;49.760;9.664;2022-12-05T03:36:08;42.25;;;20.17;;
2538;SDS011;1280;49.760;9.664;2022-12-05T03:38:43;42.15;;;18.60;;
2538;SDS011;1280;49.760;9.664;2022-12-05T03:41:16;41.78;;;17.75;;
2538;SDS011;1280;49.760;9.664;2022-12-05T03:43:51;39.38;;;19.52;;
2538;SDS011;1280;49.760;9.664;2022-12-05T03:46:23;44.22;;;19.50;;
2538;SDS011;1280;49.760;9.664;2022-12-05T03:48:58;36.38;;;18.92;;
2538;SDS011;1280;49.760;9.664;2022-12-05T03:51:34;34.40;;;18.63;;
2538;SDS011;1280;49.760;9.664;2022-12-05T03:54:07;30.75;;;16.70;;
2538;SDS011;1280;49.760;9.664;2022-12-05T03:56:40;35.80;;;18.65;;
2538;SDS011;1280;49.760;9.664;2022-12-05T03:59:15;35.80;;;18.13;;
2538;SDS011;1280;49.760;9.664;2022-12-05T04:01:49;38.42;;;19.08;;
2538;SDS011;1280;49.760;9.664;2022-12-05T04:04:25;42.88;;;18.88;;
2538;SDS011;1280;49.760;9.664;2022-12-05T04:06:59;38.40;;;19.30;;
2538;SDS011;1280;49.760;9.664;2022-12-05T04:09:34;40.15;;;17.85;;
2538;SDS011;1280;49.760;9.664;2022-12-05T04:12:07;38.90;;;19.60;;
2538;SDS011;1280;49.760;9.664;2022-12-05T04:14:41;43.40;;;21.40;;
2538;SDS011;1280;49.760;9.664;2022-12-05T04:17:16;37.95;;;18.55;;
2538;SDS011;1280;49.760;9.664;2022-12-05T04:19:51;42.10;;;19.20;;
2538;SDS011;1280;49.760;9.664;2022-12-05T04:22:40;43.58;;;20.95;;
2538;SDS011;1280;49.760;9.664;2022-12-05T04:25:11;40.13;;;18.55;;
2538;SDS011;1280;49.760;9.664;2022-12-05T04:28:01;44.38;;;19.92;;
2538;SDS011;1280;49.760;9.664;2022-12-05T04:30:47;45.33;;;19.77;;
2538;SDS011;1280;49.760;9.664;2022-12-05T04:33:22;44.60;;;19.88;;
2538;SDS011;1280;49.760;9.664;2022-12-05T04:35:58;43.90;;;19.45;;
2538;SDS011;1280;49.760;9.664;2022-12-05T04:38:29;46.60;;;21.25;;
2538;SDS011;1280;49.760;9.664;2022-12-05T04:41:05;45.55;;;19.95;;
2538;SDS011;1280;49.760;9.664;2022-12-05T04:43:38;50.53;;;19.80;;
2538;SDS011;1280;49.760;9.664;2022-12-05T04:46:09;44.40;;;19.90;;
2538;SDS011;1280;49.760;9.664;2022-12-05T04:48:40;48.50;;;20.65;;
2538;SDS011;1280;49.760;9.664;2022-12-05T04:51:14;42.67;;;20.30;;
2538;SDS011;1280;49.760;9.664;2022-12-05T04:53:46;42.13;;;18.73;;
2538;SDS011;1280;49.760;9.664;2022-12-05T04:56:18;41.90;;;18.85;;
2538;SDS011;1280;49.760;9.664;2022-12-05T04:58:50;48.55;;;19.98;;
2538;SDS011;1280;49.760;9.664;2022-12-05T05:01:18;43.38;;;19.38;;
2538;SDS011;1280;49.760;9.664;2022-12-05T05:03:50;43.35;;;18.67;;
2538;SDS011;1280;49.760;9.664;2022-12-05T05:06:24;49.50;;;18.73;;
2538;SDS011;1280;49.760;9.664;2022-12-05T05:08:54;49.25;;;19.83;;
2538;SDS011;1280;49.760;9.664;2022-12-05T05:11:24;45.30;;;19.30;;
2538;SDS011;1280;49.760;9.664;2022-12-05T05:13:53;37.70;;;17.55;;
2538;SDS011;1280;49.760;9.664;2022-12-05T05:16:23;43.47;;;16.65;;
2538;SDS011;1280;49.760;9.664;2022-12-05T05:18:52;30.35;;;14.60;;
2538;SDS011;1280;49.760;9.664;2022-12-05T05:21:22;26.77;;;13.32;;
2538;SDS011;1280;49.760;9.664;2022-12-05T05:23:53;32.67;;;15.75;;
2538;SDS011;1280;49.760;9.664;2022-12-05T05:26:22;29.55;;;16.30;;
2538;SDS011;1280;49.760;9.664;2022-12-05T05:28:51;36.80;;;14.95;;
2538;SDS011;1280;49.760;9.664;2022-12-05T05:31:19;29.80;;;15.15;;
2538;SDS011;1280;49.760;9.664;2022-12-05T05:33:48;25.98;;;13.07;;
2538;SDS011;1280;49.760;9.664;2022-12-05T05:36:17;25.77;;;12.95;;
2538;SDS011;1280;49.760;9.664;2022-12-05T05:38:48;19.75;;;12.02;;
2538;SDS011;1280;49.760;9.664;2022-12-05T05:41:18;24.17;;;12.75;;
2538;SDS011;1280;49.760;9.664;2022-12-05T05:43:48;22.08;;;12.82;;
2538;SDS011;1280;49.760;9.664;2022-12-05T05:46:16;20.83;;;12.18;;
2538;SDS011;1280;49.760;9.664;2022-12-05T05:48:46;20.63;;;12.10;;
2538;SDS011;1280;49.760;9.664;2022-12-05T05:51:15;24.23;;;12.52;;
2538;SDS011;1280;49.760;9.664;2022-12-05T05:53:44;19.38;;;12.13;;
2538;SDS011;1280;49.760;9.664;2022-12-05T05:56:15;22.30;;;11.82;;
2538;SDS011;1280;49.760;9.664;2022-12-05T05:58:47;21.05;;;11.57;;
2538;SDS011;1280;49.760;9.664;2022-12-05T06:01:21;22.13;;;11.90;;
2538;SDS011;1280;49.760;9.664;2022-12-05T06:03:49;22.85;;;13.65;;
2538;SDS011;1280;49.760;9.664;2022-12-05T06:06:18;24.63;;;13.52;;
2538;SDS011;1280;49.760;9.664;2022-12-05T06:08:46;22.75;;;13.25;;
2538;SDS011;1280;49.760;9.664;2022-12-05T06:11:16;22.40;;;13.02;;
2538;SDS011;1280;49.760;9.664;2022-12-05T06:13:52;21.20;;;13.73;;
2538;SDS011;1280;49.760;9.664;2022-12-05T06:16:21;23.67;;;14.60;;
2538;SDS011;1280;49.760;9.664;2022-12-05T06:18:49;21.58;;;14.02;;
2538;SDS011;1280;49.760;9.664;2022-12-05T06:21:18;20.77;;;13.10;;
2538;SDS011;1280;49.760;9.664;2022-12-05T06:23:47;25.05;;;14.32;;
2538;SDS011;1280;49.760;9.664;2022-12-05T06:26:17;23.45;;;13.32;;
2538;SDS011;1280;49.760;9.664;2022-12-05T06:28:47;21.42;;;13.07;;
2538;SDS011;1280;49.760;9.664;2022-12-05T06:31:16;26.30;;;14.68;;
2538;SDS011;1280;49.760;9.664;2022-12-05T06:33:45;23.88;;;13.73;;
2538;SDS011;1280;49.760;9.664;2022-12-05T06:36:14;23.08;;;13.35;;
2538;SDS011;1280;49.760;9.664;2022-12-05T06:38:44;22.13;;;13.35;;
2538;SDS011;1280;49.760;9.664;2022-12-05T06:41:13;21.88;;;13.65;;
2538;SDS011;1280;49.760;9.664;2022-12-05T06:43:44;20.52;;;12.02;;
2538;SDS011;1280;49.760;9.664;2022-12-05T06:46:12;20.63;;;12.25;;
2538;SDS011;1280;49.760;9.664;2022-12-05T06:48:41;23.90;;;12.13;;
2538;SDS011;1280;49.760;9.664;2022-12-05T06:51:12;18.25;;;11.93;;
2538;SDS011;1280;49.760;9.664;2022-12-05T06:53:49;23.30;;;12.00;;
2538;SDS011;1280;49.760;9.664;2022-12-05T06:56:18;22.98;;;13.35;;
2538;SDS011;1280;49.760;9.664;2022-12-05T06:58:48;22.48;;;12.43;;
2538;SDS011;1280;49.760;9.664;2022-12-05T07:01:19;21.48;;;12.20;;
2538;SDS011;1280;49.760;9.664;2022-12-05T07:04:13;21.02;;;12.90;;
2538;SDS011;1280;49.760;9.664;2022-12-05T07:06:51;22.13;;;12.82;;
2538;SDS011;1280;49.760;9.664;2022-12-05T07:09:23;22.85;;;12.20;;
2538;SDS011;1280;49.760;9.664;2022-12-05T07:12:11;22.40;;;12.20;;
2538;SDS011;1280;49.760;9.664;2022-12-05T07:14:43;19.40;;;11.52;;
2538;SDS011;1280;49.760;9.664;2022-12-05T07:17:14;19.45;;;11.07;;
2538;SDS011;1280;49.760;9.664;2022-12-05T07:19:43;19.88;;;11.45;;
2538;SDS011;1280;49.760;9.664;2022-12-05T07:22:11;20.25;;;11.25;;
2538;SDS011;1280;49.760;9.664;2022-12-05T07:24:41;19.55;;;10.95;;
2538;SDS011;1280;49.760;9.664;2022-12-05T07:27:09;22.67;;;12.50;;
2538;SDS011;1280;49.760;9.664;2022-12-05T07:29:37;23.17;;;12.60;;
2538;SDS011;1280;49.760;9.664;2022-12-05T07:32:07;22.52;;;12.25;;
2538;SDS011;1280;49.760;9.664;2022-12-05T07:34:35;20.98;;;12.10;;
2538;SDS011;1280;49.760;9.664;2022-12-05T07:37:04;20.77;;;11.85;;
2538;SDS011;1280;49.760;9.664;2022-12-05T07:39:32;17.85;;;11.35;;
2538;SDS011;1280;49.760;9.664;2022-12-05T07:42:00;16.08;;;9.82;;
2538;SDS011;1280;49.760;9.664;2022-12-05T07:44:28;19.05;;;10.15;;
2538;SDS011;1280;49.760;9.664;2022-12-05T07:46:56;17.90;;;10.52;;
2538;SDS011;1280;49.760;9.664;2022-12-05T07:49:26;19.88;;;10.45;;
2538;SDS011;1280;49.760;9.664;2022-12-05T07:51:54;21.15;;;10.25;;
2538;SDS011;1280;49.760;9.664;2022-12-05T07:54:22;16.02;;;10.43;;
2538;SDS011;1280;49.760;9.664;2022-12-05T07:56:50;17.60;;;9.85;;
2538;SDS011;1280;49.760;9.664;2022-12-05T07:59:18;17.80;;;10.18;;
2538;SDS011;1280;49.760;9.664;2022-12-05T08:01:46;19.27;;;10.68;;
2538;SDS011;1280;49.760;9.664;2022-12-05T08:04:15;19.52;;;10.90;;
2538;SDS011;1280;49.760;9.664;2022-12-05T08:06:44;17.70;;;10.23;;
2538;SDS011;1280;49.760;9.664;2022-12-05T08:09:12;19.33;;;11.38;;
2538;SDS011;1280;49.760;9.664;2022-12-05T08:11:40;17.83;;;10.15;;
2538;SDS011;1280;49.760;9.664;2022-12-05T08:14:14;20.67;;;10.98;;
2538;SDS011;1280;49.760;9.664;2022-12-05T08:16:42;21.10;;;11.60;;
2538;SDS011;1280;49.760;9.664;2022-12-05T08:19:10;17.98;;;10.90;;
2538;SDS011;1280;49.760;9.664;2022-12-05T08:21:40;16.33;;;10.60;;
2538;SDS011;1280;49.760;9.664;2022-12-05T08:24:10;17.15;;;9.95;;
2538;SDS011;1280;49.760;9.664;2022-12-05T08:26:39;21.92;;;11.20;;
2538;SDS011;1280;49.760;9.664;2022-12-05T08:29:08;20.65;;;10.60;;
2538;SDS011;1280;49.760;9.664;2022-12-05T08:31:38;19.85;;;12.25;;
2538;SDS011;1280;49.760;9.664;2022-12-05T08:34:09;20.67;;;11.50;;
2538;SDS011;1280;49.760;9.664;2022-12-05T08:36:38;20.63;;;10.55;;
2538;SDS011;1280;49.760;9.664;2022-12-05T08:39:07;19.13;;;10.88;;
2538;SDS011;1280;49.760;9.664;2022-12-05T08:41:41;22.42;;;13.07;;
2538;SDS011;1280;49.760;9.664;2022-12-05T08:44:09;19.48;;;11.65;;
2538;SDS011;1280;49.760;9.664;2022-12-05T08:46:42;18.73;;;11.70;;
2538;SDS011;1280;49.760;9.664;2022-12-05T08:49:11;19.23;;;11.75;;
2538;SDS011;1280;49.760;9.664;2022-12-05T08:51:40;20.42;;;12.05;;
2538;SDS011;1280;49.760;9.664;2022-12-05T08:54:10;24.15;;;12.38;;
2538;SDS011;1280;49.760;9.664;2022-12-05T08:56:46;22.92;;;11.90;;
2538;SDS011;1280;49.760;9.664;2022-12-05T08:59:17;19.85;;;12.00;;
2538;SDS011;1280;49.760;9.664;2022-12-05T09:01:47;20.52;;;11.18;;
2538;SDS011;1280;49.760;9.664;2022-12-05T09:04:16;19.85;;;12.13;;
2538;SDS011;1280;49.760;9.664;2022-12-05T09:06:44;25.48;;;13.23;;
2538;SDS011;1280;49.760;9.664;2022-12-05T09:09:13;24.60;;;12.75;;
2538;SDS011;1280;49.760;9.664;2022-12-05T09:11:42;24.13;;;12.07;;
2538;SDS011;1280;49.760;9.664;2022-12-05T09:14:14;22.65;;;12.63;;
2538;SDS011;1280;49.760;9.664;2022-12-05T09:16:42;23.83;;;13.27;;
2538;SDS011;1280;49.760;9.664;2022-12-05T09:19:12;22.08;;;12.65;;
2538;SDS011;1280;49.760;9.664;2022-12-05T09:21:42;25.90;;;13.60;;
2538;SDS011;1280;49.760;9.664;2022-12-05T09:24:11;27.08;;;13.65;;
2538;SDS011;1280;49.760;9.664;2022-12-05T09:26:41;24.13;;;12.63;;
2538;SDS011;1280;49.760;9.664;2022-12-05T09:29:10;23.48;;;12.38;;
2538;SDS011;1280;49.760;9.664;2022-12-05T09:31:44;23.65;;;13.55;;
2538;SDS011;1280;49.760;9.664;2022-12-05T09:34:12;24.50;;;14.43;;
2538;SDS011;1280;49.760;9.664;2022-12-05T09:36:41;24.33;;;14.32;;
2538;SDS011;1280;49.760;9.664;2022-12-05T09:39:09;28.42;;;14.48;;
2538;SDS011;1280;49.760;9.664;2022-12-05T09:41:43;24.05;;;14.45;;
2538;SDS011;1280;49.760;9.664;2022-12-05T09:44:43;25.70;;;12.40;;
2538;SDS011;1280;49.760;9.664;2022-12-05T09:47:28;27.42;;;13.30;;
2538;SDS011;1280;49.760;9.664;2022-12-05T09:50:02;23.35;;;13.88;;
2538;SDS011;1280;49.760;9.664;2022-12-05T09:52:40;26.60;;;15.27;;
2538;SDS011;1280;49.760;9.664;2022-12-05T09:55:12;22.52;;;12.95;;
2538;SDS011;1280;49.760;9.664;2022-12-05T09:57:45;24.88;;;13.32;;
2538;SDS011;1280;49.760;9.664;2022-12-05T10:00:18;26.83;;;15.32;;
2538;SDS011;1280;49.760;9.664;2022-12-05T10:02:49;24.13;;;13.35;;
2538;SDS011;1280;49.760;9.664;2022-12-05T10:05:26;30.20;;;14.65;;
2538;SDS011;1280;49.760;9.664;2022-12-05T10:08:05;27.58;;;14.43;;
2538;SDS011;1280;49.760;9.664;2022-12-05T10:10:42;26.63;;;13.60;;
2538;SDS011;1280;49.760;9.664;2022-12-05T10:13:38;26.60;;;14.85;;
2538;SDS011;1280;49.760;9.664;2022-12-05T10:16:13;24.40;;;14.65;;
2538;SDS011;1280;49.760;9.664;2022-12-05T10:18:47;27.60;;;14.65;;
2538;SDS011;1280;49.760;9.664;2022-12-05T10:21:20;27.77;;;14.23;;
2538;SDS011;1280;49.760;9.664;2022-12-05T10:23:57;31.55;;;14.85;;
2538;SDS011;1280;49.760;9.664;2022-12-05T10:26:27;24.48;;;13.70;;
2538;SDS011;1280;49.760;9.664;2022-12-05T10:29:01;26.52;;;14.77;;
2538;SDS011;1280;49.760;9.664;2022-12-05T10:31:37;31.38;;;15.63;;
2538;SDS011;1280;49.760;9.664;2022-12-05T10:34:10;22.80;;;13.32;;
2538;SDS011;1280;49.760;9.664;2022-12-05T10:36:43;28.95;;;16.35;;
2538;SDS011;1280;49.760;9.664;2022-12-05T10:39:21;27.00;;;14.85;;
2538;SDS011;1280;49.760;9.664;2022-12-05T10:41:49;25.83;;;14.23;;
2538;SDS011;1280;49.760;9.664;2022-12-05T10:44:19;29.42;;;15.65;;
2538;SDS011;1280;49.760;9.664;2022-12-05T10:46:47;30.52;;;15.15;;
2538;SDS011;1280;49.760;9.664;2022-12-05T10:49:15;28.05;;;15.77;;
2538;SDS011;1280;49.760;9.664;2022-12-05T10:51:45;23.92;;;13.93;;
2538;SDS011;1280;49.760;9.664;2022-12-05T10:54:16;24.20;;;14.07;;
2538;SDS011;1280;49.760;9.664;2022-12-05T10:56:47;32.20;;;14.60;;
2538;SDS011;1280;49.760;9.664;2022-12-05T10:59:17;28.67;;;15.35;;
2538;SDS011;1280;49.760;9.664;2022-12-05T11:01:48;28.02;;;13.75;;
2538;SDS011;1280;49.760;9.664;2022-12-05T11:04:24;28.05;;;14.60;;
2538;SDS011;1280;49.760;9.664;2022-12-05T11:06:56;23.25;;;14.48;;
2538;SDS011;1280;49.760;9.664;2022-12-05T11:09:27;27.42;;;13.23;;
2538;SDS011;1280;49.760;9.664;2022-12-05T11:11:59;27.90;;;14.70;;
2538;SDS011;1280;49.760;9.664;2022-12-05T11:14:53;29.80;;;15.02;;
2538;SDS011;1280;49.760;9.664;2022-12-05T11:17:25;28.13;;;14.48;;
2538;SDS011;1280;49.760;9.664;2022-12-05T11:19:56;28.58;;;13.98;;
2538;SDS011;1280;49.760;9.664;2022-12-05T11:22:31;25.60;;;14.85;;
2538;SDS011;1280;49.760;9.664;2022-12-05T11:27:51;25.33;;;14.07;;
2538;SDS011;1280;49.760;9.664;2022-12-05T11:30:27;23.60;;;14.10;;
2538;SDS011;1280;49.760;9.664;2022-12-05T11:33:09;25.23;;;13.38;;
2538;SDS011;1280;49.760;9.664;2022-12-05T11:35:39;25.17;;;14.95;;
2538;SDS011;1280;49.760;9.664;2022-12-05T11:38:08;47.33;;;24.08;;
2538;SDS011;1280;49.760;9.664;2022-12-05T11:40:40;34.35;;;17.65;;
2538;SDS011;1280;49.760;9.664;2022-12-05T11:43:23;49.80;;;23.60;;
2538;SDS011;1280;49.760;9.664;2022-12-05T11:46:14;59.25;;;32.10;;
2538;SDS011;1280;49.760;9.664;2022-12-05T11:48:59;55.90;;;28.02;;
2538;SDS011;1280;49.760;9.664;2022-12-05T11:51:39;42.50;;;22.08;;
2538;SDS011;1280;49.760;9.664;2022-12-05T11:54:16;33.13;;;17.05;;
2538;SDS011;1280;49.760;9.664;2022-12-05T11:57:14;36.35;;;18.77;;
2538;SDS011;1280;49.760;9.664;2022-12-05T11:59:56;35.22;;;17.90;;
2538;SDS011;1280;49.760;9.664;2022-12-05T12:03:00;36.35;;;17.92;;
2538;SDS011;1280;49.760;9.664;2022-12-05T12:05:50;32.22;;;16.80;;
2538;SDS011;1280;49.760;9.664;2022-12-05T12:08:27;34.28;;;17.05;;
2538;SDS011;1280;49.760;9.664;2022-12-05T12:10:59;30.35;;;16.58;;
2538;SDS011;1280;49.760;9.664;2022-12-05T12:13:46;33.97;;;17.35;;
2538;SDS011;1280;49.760;9.664;2022-12-05T12:16:27;32.88;;;17.75;;
2538;SDS011;1280;49.760;9.664;2022-12-05T12:19:14;31.95;;;17.05;;
2538;SDS011;1280;49.760;9.664;2022-12-05T12:21:57;33.83;;;16.60;;
2538;SDS011;1280;49.760;9.664;2022-12-05T12:24:42;39.60;;;17.40;;
2538;SDS011;1280;49.760;9.664;2022-12-05T12:27:30;36.88;;;18.38;;
2538;SDS011;1280;49.760;9.664;2022-12-05T12:30:09;40.75;;;19.48;;
2538;SDS011;1280;49.760;9.664;2022-12-05T12:32:43;37.63;;;18.55;;
2538;SDS011;1280;49.760;9.664;2022-12-05T12:35:24;34.85;;;18.92;;
2538;SDS011;1280;49.760;9.664;2022-12-05T12:40:47;35.85;;;17.27;;
2538;SDS011;1280;49.760;9.664;2022-12-05T12:43:23;35.95;;;18.33;;
2538;SDS011;1280;49.760;9.664;2022-12-05T12:46:32;36.33;;;17.33;;
2538;SDS011;1280;49.760;9.664;2022-12-05T12:49:10;34.15;;;16.63;;
2538;SDS011;1280;49.760;9.664;2022-12-05T12:51:50;39.38;;;17.55;;
2538;SDS011;1280;49.760;9.664;2022-12-05T12:54:26;29.45;;;15.57;;
2538;SDS011;1280;49.760;9.664;2022-12-05T12:57:30;29.52;;;15.27;;
2538;SDS011;1280;49.760;9.664;2022-12-05T13:00:11;26.77;;;14.90;;
2538;SDS011;1280;49.760;9.664;2022-12-05T13:02:49;26.23;;;13.18;;
2538;SDS011;1280;49.760;9.664;2022-12-05T13:05:22;28.48;;;12.73;;
2538;SDS011;1280;49.760;9.664;2022-12-05T13:07:58;25.42;;;12.93;;
2538;SDS011;1280;49.760;9.664;2022-12-05T13:10:32;26.73;;;12.73;;
2538;SDS011;1280;49.760;9.664;2022-12-05T13:13:03;26.27;;;13.30;;
2538;SDS011;1280;49.760;9.664;2022-12-05T13:15:33;21.50;;;11.02;;
2538;SDS011;1280;49.760;9.664;2022-12-05T13:18:06;20.83;;;11.75;;
2538;SDS011;1280;49.760;9.664;2022-12-05T13:20:41;20.85;;;11.70;;
2538;SDS011;1280;49.760;9.664;2022-12-05T13:23:12;19.30;;;11.50;;
2538;SDS011;1280;49.760;9.664;2022-12-05T13:25:42;21.02;;;10.95;;
2538;SDS011;1280;49.760;9.664;2022-12-05T13:28:16;20.65;;;11.45;;
2538;SDS011;1280;49.760;9.664;2022-12-05T13:30:54;16.13;;;9.43;;
2538;SDS011;1280;49.760;9.664;2022-12-05T13:33:32;17.13;;;9.50;;
2538;SDS011;1280;49.760;9.664;2022-12-05T13:36:04;18.65;;;9.95;;
2538;SDS011;1280;49.760;9.664;2022-12-05T13:38:57;17.13;;;10.18;;
2538;SDS011;1280;49.760;9.664;2022-12-05T13:41:44;15.48;;;9.40;;
2538;SDS011;1280;49.760;9.664;2022-12-05T13:44:34;19.13;;;10.82;;
2538;SDS011;1280;49.760;9.664;2022-12-05T13:47:06;16.80;;;9.68;;
2538;SDS011;1280;49.760;9.664;2022-12-05T13:49:48;17.05;;;10.25;;
2538;SDS011;1280;49.760;9.664;2022-12-05T13:52:20;14.18;;;9.32;;
2538;SDS011;1280;49.760;9.664;2022-12-05T13:54:53;15.15;;;9.35;;
2538;SDS011;1280;49.760;9.664;2022-12-05T14:00:19;17.25;;;10.40;;
2538;SDS011;1280;49.760;9.664;2022-12-05T14:02:50;16.45;;;9.30;;
2538;SDS011;1280;49.760;9.664;2022-12-05T14:11:19;15.82;;;9.40;;
2538;SDS011;1280;49.760;9.664;2022-12-05T14:13:47;15.27;;;9.63;;
2538;SDS011;1280;49.760;9.664;2022-12-05T14:19:21;14.98;;;9.55;;
2538;SDS011;1280;49.760;9.664;2022-12-05T14:22:14;19.20;;;11.25;;
2538;SDS011;1280;49.760;9.664;2022-12-05T14:24:51;17.02;;;10.13;;
2538;SDS011;1280;49.760;9.664;2022-12-05T14:27:27;14.98;;;9.30;;
2538;SDS011;1280;49.760;9.664;2022-12-05T14:30:15;14.80;;;9.82;;
2538;SDS011;1280;49.760;9.664;2022-12-05T14:32:48;16.90;;;9.75;;
2538;SDS011;1280;49.760;9.664;2022-12-05T14:35:26;13.70;;;8.65;;
2538;SDS011;1280;49.760;9.664;2022-12-05T14:37:57;15.38;;;9.63;;
2538;SDS011;1280;49.760;9.664;2022-12-05T14:40:29;16.02;;;9.40;;
2538;SDS011;1280;49.760;9.664;2022-12-05T14:43:01;16.70;;;9.55;;
2538;SDS011;1280;49.760;9.664;2022-12-05T14:45:33;16.30;;;9.25;;
2538;SDS011;1280;49.760;9.664;2022-12-05T14:48:05;15.10;;;9.60;;
2538;SDS011;1280;49.760;9.664;2022-12-05T14:50:53;14.68;;;8.77;;
2538;SDS011;1280;49.760;9.664;2022-12-05T14:53:32;16.38;;;9.35;;
2538;SDS011;1280;49.760;9.664;2022-12-05T14:56:04;16.45;;;10.50;;
2538;SDS011;1280;49.760;9.664;2022-12-05T14:58:41;15.45;;;9.85;;
2538;SDS011;1280;49.760;9.664;2022-12-05T15:01:15;16.35;;;10.25;;
2538;SDS011;1280;49.760;9.664;2022-12-05T15:03:58;17.00;;;9.30;;
2538;SDS011;1280;49.760;9.664;2022-12-05T15:06:51;18.20;;;10.45;;
2538;SDS011;1280;49.760;9.664;2022-12-05T15:09:34;19.75;;;10.70;;
2538;SDS011;1280;49.760;9.664;2022-12-05T15:12:11;17.83;;;10.50;;
2538;SDS011;1280;49.760;9.664;2022-12-05T15:14:44;20.73;;;10.90;;
2538;SDS011;1280;49.760;9.664;2022-12-05T15:17:17;18.48;;;11.35;;
2538;SDS011;1280;49.760;9.664;2022-12-05T15:19:50;17.65;;;10.32;;
2538;SDS011;1280;49.760;9.664;2022-12-05T15:22:22;19.40;;;10.82;;
2538;SDS011;1280;49.760;9.664;2022-12-05T15:24:53;17.67;;;10.10;;
2538;SDS011;1280;49.760;9.664;2022-12-05T15:27:21;18.55;;;10.30;;
2538;SDS011;1280;49.760;9.664;2022-12-05T15:29:53;17.13;;;10.70;;
2538;SDS011;1280;49.760;9.664;2022-12-05T15:32:23;15.02;;;10.02;;
2538;SDS011;1280;49.760;9.664;2022-12-05T15:34:55;16.90;;;11.55;;
2538;SDS011;1280;49.760;9.664;2022-12-05T15:37:28;23.13;;;10.43;;
2538;SDS011;1280;49.760;9.664;2022-12-05T15:40:02;17.42;;;9.57;;
2538;SDS011;1280;49.760;9.664;2022-12-05T15:42:38;15.30;;;9.32;;
2538;SDS011;1280;49.760;9.664;2022-12-05T15:45:17;16.70;;;10.32;;